Callisburg, Texas
Current Conditions -  °F | °C
As of 8:55 PM on Thursday 18 Dec 2014 (Local Time) from KGLE Reporting Station
Haze Haze  
Wind Chill: 39°   Ceiling: 400
Heat Index: 43°   Visibility: 5mi
Dew Point: 42°   Wind: 8mph
Humidity: 96%   Direction: 40°NE
Pressure: 30.21"   Gusts: NA
Location:  33.7001°N, 97.0805°W
Report Text: KGLE 190255Z AUTO 04007KT 5SM BR BKN004 OVC007 06/06 A3021 RMK AO2 T00630057
Loading
Personal Weather Stations






























Interactive Weather Map New forecast layout! Learn more

10-Day Weather Forecast

Advertisements
Track Severe Weather on mobile